sensor_id;sensor_type;location;lat;lon;timestamp;pressure;altitude;pressure_sealevel;temperature;humidity
29045;BME280;16133;49.486;12.176;2023-06-14T00:00:48;97049.00;;;12.45;71.66
29045;BME280;16133;49.486;12.176;2023-06-14T00:03:14;97047.94;;;12.39;72.95
29045;BME280;16133;49.486;12.176;2023-06-14T00:05:42;97051.00;;;12.30;73.76
29045;BME280;16133;49.486;12.176;2023-06-14T00:08:11;97055.25;;;12.24;74.01
29045;BME280;16133;49.486;12.176;2023-06-14T00:10:37;97055.25;;;12.18;73.51
29045;BME280;16133;49.486;12.176;2023-06-14T00:13:03;97049.91;;;12.18;74.29
29045;BME280;16133;49.486;12.176;2023-06-14T00:15:30;97052.75;;;12.16;74.25
29045;BME280;16133;49.486;12.176;2023-06-14T00:17:56;97055.00;;;12.13;74.69
29045;BME280;16133;49.486;12.176;2023-06-14T00:20:21;97061.50;;;12.04;75.37
29045;BME280;16133;49.486;12.176;2023-06-14T00:22:47;97056.72;;;11.92;75.63
29045;BME280;16133;49.486;12.176;2023-06-14T00:25:13;97059.94;;;11.81;77.68
29045;BME280;16133;49.486;12.176;2023-06-14T00:27:38;97064.41;;;11.74;77.01
29045;BME280;16133;49.486;12.176;2023-06-14T00:30:04;97055.44;;;11.75;77.43
29045;BME280;16133;49.486;12.176;2023-06-14T00:32:30;97054.59;;;11.75;77.54
29045;BME280;16133;49.486;12.176;2023-06-14T00:34:55;97048.06;;;11.77;76.90
29045;BME280;16133;49.486;12.176;2023-06-14T00:37:21;97056.03;;;11.77;77.66
29045;BME280;16133;49.486;12.176;2023-06-14T00:39:47;97046.03;;;11.79;77.16
29045;BME280;16133;49.486;12.176;2023-06-14T00:42:23;97048.91;;;11.84;77.54
29045;BME280;16133;49.486;12.176;2023-06-14T00:44:48;97048.13;;;11.84;77.32
29045;BME280;16133;49.486;12.176;2023-06-14T00:47:13;97050.97;;;11.82;78.03
29045;BME280;16133;49.486;12.176;2023-06-14T00:49:39;97053.38;;;11.77;78.36
29045;BME280;16133;49.486;12.176;2023-06-14T00:52:04;97053.78;;;11.74;77.44
29045;BME280;16133;49.486;12.176;2023-06-14T00:54:31;97057.19;;;11.68;78.44
29045;BME280;16133;49.486;12.176;2023-06-14T00:56:56;97053.72;;;11.68;77.50
29045;BME280;16133;49.486;12.176;2023-06-14T00:59:22;97059.00;;;11.61;78.14
29045;BME280;16133;49.486;12.176;2023-06-14T01:01:47;97056.09;;;11.56;78.30
29045;BME280;16133;49.486;12.176;2023-06-14T01:04:13;97062.22;;;11.57;78.19
29045;BME280;16133;49.486;12.176;2023-06-14T01:09:37;97062.63;;;11.54;80.14
29045;BME280;16133;49.486;12.176;2023-06-14T01:12:21;97063.06;;;11.57;79.63
29045;BME280;16133;49.486;12.176;2023-06-14T01:14:48;97060.75;;;11.54;80.12
29045;BME280;16133;49.486;12.176;2023-06-14T01:17:14;97068.50;;;11.49;81.74
29045;BME280;16133;49.486;12.176;2023-06-14T01:19:45;97069.66;;;11.40;83.52
29045;BME280;16133;49.486;12.176;2023-06-14T01:22:11;97071.28;;;11.34;83.66
29045;BME280;16133;49.486;12.176;2023-06-14T01:24:36;97073.47;;;11.31;82.91
29045;BME280;16133;49.486;12.176;2023-06-14T01:27:05;97065.56;;;11.37;82.75
29045;BME280;16133;49.486;12.176;2023-06-14T01:29:32;97072.50;;;11.38;83.30
29045;BME280;16133;49.486;12.176;2023-06-14T01:31:59;97070.06;;;11.37;82.70
29045;BME280;16133;49.486;12.176;2023-06-14T01:34:25;97071.44;;;11.33;83.65
29045;BME280;16133;49.486;12.176;2023-06-14T01:36:52;97073.75;;;11.42;82.85
29045;BME280;16133;49.486;12.176;2023-06-14T01:39:20;97058.22;;;11.39;83.30
29045;BME280;16133;49.486;12.176;2023-06-14T01:41:47;97066.47;;;11.51;83.44
29045;BME280;16133;49.486;12.176;2023-06-14T01:44:14;97065.72;;;11.57;82.50
29045;BME280;16133;49.486;12.176;2023-06-14T01:46:40;97056.09;;;11.56;82.49
29045;BME280;16133;49.486;12.176;2023-06-14T01:49:07;97061.44;;;11.63;82.19
29045;BME280;16133;49.486;12.176;2023-06-14T01:51:33;97066.75;;;11.63;82.87
29045;BME280;16133;49.486;12.176;2023-06-14T01:53:58;97067.16;;;11.60;82.91
29045;BME280;16133;49.486;12.176;2023-06-14T01:56:25;97065.09;;;11.62;82.31
29045;BME280;16133;49.486;12.176;2023-06-14T01:58:51;97061.66;;;11.61;82.60
29045;BME280;16133;49.486;12.176;2023-06-14T02:01:17;97068.78;;;11.61;82.14
29045;BME280;16133;49.486;12.176;2023-06-14T02:03:44;97073.50;;;11.65;83.27
29045;BME280;16133;49.486;12.176;2023-06-14T02:06:10;97068.84;;;11.67;82.83
29045;BME280;16133;49.486;12.176;2023-06-14T02:08:35;97070.13;;;11.71;83.41
29045;BME280;16133;49.486;12.176;2023-06-14T02:11:01;97073.63;;;11.78;83.65
29045;BME280;16133;49.486;12.176;2023-06-14T02:13:26;97075.72;;;11.83;83.58
29045;BME280;16133;49.486;12.176;2023-06-14T02:15:52;97071.00;;;11.85;83.46
29045;BME280;16133;49.486;12.176;2023-06-14T02:18:20;97068.16;;;11.86;82.21
29045;BME280;16133;49.486;12.176;2023-06-14T02:20:46;97067.78;;;11.89;83.12
29045;BME280;16133;49.486;12.176;2023-06-14T02:23:12;97063.69;;;11.93;82.52
29045;BME280;16133;49.486;12.176;2023-06-14T02:25:38;97074.34;;;11.93;82.69
29045;BME280;16133;49.486;12.176;2023-06-14T02:28:04;97066.13;;;11.88;82.75
29045;BME280;16133;49.486;12.176;2023-06-14T02:30:30;97066.50;;;11.85;84.10
29045;BME280;16133;49.486;12.176;2023-06-14T02:32:56;97064.88;;;11.84;84.64
29045;BME280;16133;49.486;12.176;2023-06-14T02:35:22;97066.50;;;11.85;84.26
29045;BME280;16133;49.486;12.176;2023-06-14T02:37:51;97059.19;;;11.87;85.52
29045;BME280;16133;49.486;12.176;2023-06-14T02:40:18;97056.88;;;11.84;85.86
29045;BME280;16133;49.486;12.176;2023-06-14T02:42:44;97056.88;;;11.84;86.41
29045;BME280;16133;49.486;12.176;2023-06-14T02:45:09;97057.09;;;11.83;87.37
29045;BME280;16133;49.486;12.176;2023-06-14T02:47:34;97055.84;;;11.79;87.43
29045;BME280;16133;49.486;12.176;2023-06-14T02:50:00;97065.06;;;11.76;88.51
29045;BME280;16133;49.486;12.176;2023-06-14T02:52:25;97061.00;;;11.80;87.97
29045;BME280;16133;49.486;12.176;2023-06-14T02:54:51;97062.97;;;11.72;89.27
29045;BME280;16133;49.486;12.176;2023-06-14T02:57:17;97062.09;;;11.65;89.88
29045;BME280;16133;49.486;12.176;2023-06-14T02:59:42;97068.78;;;11.61;90.71
29045;BME280;16133;49.486;12.176;2023-06-14T03:02:08;97068.41;;;11.64;91.94
29045;BME280;16133;49.486;12.176;2023-06-14T03:04:33;97076.63;;;11.69;93.23
29045;BME280;16133;49.486;12.176;2023-06-14T03:07:02;97072.19;;;11.76;92.18
29045;BME280;16133;49.486;12.176;2023-06-14T03:09:35;97078.78;;;11.80;93.32
29045;BME280;16133;49.486;12.176;2023-06-14T03:12:01;97061.59;;;11.82;93.03
29045;BME280;16133;49.486;12.176;2023-06-14T03:14:28;97069.19;;;11.92;93.15
29045;BME280;16133;49.486;12.176;2023-06-14T03:16:54;97065.13;;;11.96;92.69
29045;BME280;16133;49.486;12.176;2023-06-14T03:19:24;97072.31;;;11.95;92.90
29045;BME280;16133;49.486;12.176;2023-06-14T03:21:51;97075.59;;;11.97;93.19
29045;BME280;16133;49.486;12.176;2023-06-14T03:24:17;97071.09;;;11.98;94.06
29045;BME280;16133;49.486;12.176;2023-06-14T03:26:43;97074.38;;;12.00;93.75
29045;BME280;16133;49.486;12.176;2023-06-14T03:29:08;97073.34;;;12.01;93.17
29045;BME280;16133;49.486;12.176;2023-06-14T03:31:34;97077.44;;;12.04;93.69
29045;BME280;16133;49.486;12.176;2023-06-14T03:34:01;97084.22;;;12.06;94.44
29045;BME280;16133;49.486;12.176;2023-06-14T03:36:26;97083.84;;;12.09;94.57
29045;BME280;16133;49.486;12.176;2023-06-14T03:38:53;97093.66;;;12.15;93.63
29045;BME280;16133;49.486;12.176;2023-06-14T03:41:20;97086.75;;;12.21;94.80
29045;BME280;16133;49.486;12.176;2023-06-14T03:43:45;97094.16;;;12.25;93.60
29045;BME280;16133;49.486;12.176;2023-06-14T03:46:10;97090.25;;;12.28;94.27
29045;BME280;16133;49.486;12.176;2023-06-14T03:48:36;97097.47;;;12.34;94.04
29045;BME280;16133;49.486;12.176;2023-06-14T03:51:01;97096.25;;;12.43;92.87
29045;BME280;16133;49.486;12.176;2023-06-14T03:53:27;97097.91;;;12.44;93.19
29045;BME280;16133;49.486;12.176;2023-06-14T03:55:54;97106.50;;;12.46;92.35
29045;BME280;16133;49.486;12.176;2023-06-14T03:58:19;97111.03;;;12.52;92.29
29045;BME280;16133;49.486;12.176;2023-06-14T04:00:45;97111.06;;;12.59;92.95
29045;BME280;16133;49.486;12.176;2023-06-14T04:03:11;97116.44;;;12.72;91.91
29045;BME280;16133;49.486;12.176;2023-06-14T04:05:38;97107.84;;;12.76;90.43
29045;BME280;16133;49.486;12.176;2023-06-14T04:08:07;97113.38;;;12.81;90.01
29045;BME280;16133;49.486;12.176;2023-06-14T04:10:37;97111.38;;;12.83;89.71
29045;BME280;16133;49.486;12.176;2023-06-14T04:13:02;97110.13;;;12.86;90.25
29045;BME280;16133;49.486;12.176;2023-06-14T04:15:28;97113.41;;;12.88;90.52
29045;BME280;16133;49.486;12.176;2023-06-14T04:17:53;97120.38;;;12.89;90.06
29045;BME280;16133;49.486;12.176;2023-06-14T04:20:22;97115.06;;;12.95;90.48
29045;BME280;16133;49.486;12.176;2023-06-14T04:22:49;97115.28;;;13.01;89.93
29045;BME280;16133;49.486;12.176;2023-06-14T04:25:15;97119.00;;;13.06;89.92
29045;BME280;16133;49.486;12.176;2023-06-14T04:27:40;97119.44;;;13.10;89.47
29045;BME280;16133;49.486;12.176;2023-06-14T04:30:07;97121.25;;;13.09;89.20
29045;BME280;16133;49.486;12.176;2023-06-14T04:32:32;97124.09;;;13.01;89.47
29045;BME280;16133;49.486;12.176;2023-06-14T04:35:07;97124.91;;;13.02;90.33
29045;BME280;16133;49.486;12.176;2023-06-14T04:37:33;97124.91;;;13.02;90.89
29045;BME280;16133;49.486;12.176;2023-06-14T04:39:59;97127.19;;;13.05;90.00
29045;BME280;16133;49.486;12.176;2023-06-14T04:42:24;97130.84;;;13.04;90.60
29045;BME280;16133;49.486;12.176;2023-06-14T04:44:51;97135.03;;;13.26;89.63
29045;BME280;16133;49.486;12.176;2023-06-14T04:47:17;97129.31;;;13.55;88.37
29045;BME280;16133;49.486;12.176;2023-06-14T04:49:43;97124.78;;;13.82;86.99
29045;BME280;16133;49.486;12.176;2023-06-14T04:52:08;97125.16;;;14.12;84.93
29045;BME280;16133;49.486;12.176;2023-06-14T04:54:36;97132.28;;;14.44;82.86
29045;BME280;16133;49.486;12.176;2023-06-14T04:57:04;97138.13;;;15.17;80.46
29045;BME280;16133;49.486;12.176;2023-06-14T04:59:29;97135.19;;;16.06;74.88
29045;BME280;16133;49.486;12.176;2023-06-14T05:01:58;97131.25;;;16.99;71.18
29045;BME280;16133;49.486;12.176;2023-06-14T05:04:25;97132.34;;;17.93;65.84
29045;BME280;16133;49.486;12.176;2023-06-14T05:06:52;97125.38;;;18.78;62.35
29045;BME280;16133;49.486;12.176;2023-06-14T05:09:19;97132.03;;;19.44;59.48
29045;BME280;16133;49.486;12.176;2023-06-14T05:11:45;97140.63;;;19.91;58.01
29045;BME280;16133;49.486;12.176;2023-06-14T05:14:11;97135.47;;;19.89;57.04
29045;BME280;16133;49.486;12.176;2023-06-14T05:16:36;97142.34;;;20.14;55.68
29045;BME280;16133;49.486;12.176;2023-06-14T05:19:02;97138.03;;;20.29;54.63
29045;BME280;16133;49.486;12.176;2023-06-14T05:21:29;97135.19;;;20.58;53.81
29045;BME280;16133;49.486;12.176;2023-06-14T05:23:55;97136.50;;;20.98;53.15
29045;BME280;16133;49.486;12.176;2023-06-14T05:26:21;97129.16;;;21.37;51.83
29045;BME280;16133;49.486;12.176;2023-06-14T05:28:56;97122.50;;;21.77;50.42
29045;BME280;16133;49.486;12.176;2023-06-14T05:31:25;97132.41;;;21.98;49.95
29045;BME280;16133;49.486;12.176;2023-06-14T05:33:51;97134.50;;;22.23;48.39
29045;BME280;16133;49.486;12.176;2023-06-14T05:36:16;97134.47;;;22.65;48.27
29045;BME280;16133;49.486;12.176;2023-06-14T05:38:42;97133.19;;;22.77;46.50
29045;BME280;16133;49.486;12.176;2023-06-14T05:41:07;97132.63;;;22.70;47.17
29045;BME280;16133;49.486;12.176;2023-06-14T05:43:32;97128.16;;;23.01;46.94
29045;BME280;16133;49.486;12.176;2023-06-14T05:45:58;97146.13;;;23.32;45.41
29045;BME280;16133;49.486;12.176;2023-06-14T05:48:23;97144.50;;;23.37;45.73
29045;BME280;16133;49.486;12.176;2023-06-14T05:50:48;97148.56;;;23.39;45.19
29045;BME280;16133;49.486;12.176;2023-06-14T05:53:14;97151.81;;;23.36;44.73
29045;BME280;16133;49.486;12.176;2023-06-14T05:55:39;97161.81;;;23.35;45.11
29045;BME280;16133;49.486;12.176;2023-06-14T05:58:05;97128.69;;;22.98;45.37
29045;BME280;16133;49.486;12.176;2023-06-14T06:00:30;97161.06;;;22.78;45.13
29045;BME280;16133;49.486;12.176;2023-06-14T06:02:56;97165.53;;;22.57;46.31
29045;BME280;16133;49.486;12.176;2023-06-14T06:05:23;97157.47;;;22.25;46.55
29045;BME280;16133;49.486;12.176;2023-06-14T06:07:49;97155.94;;;22.39;46.54
29045;BME280;16133;49.486;12.176;2023-06-14T06:10:15;97161.63;;;22.80;46.65
29045;BME280;16133;49.486;12.176;2023-06-14T06:12:42;97158.59;;;23.39;44.51
29045;BME280;16133;49.486;12.176;2023-06-14T06:15:08;97165.72;;;23.70;44.12
29045;BME280;16133;49.486;12.176;2023-06-14T06:17:37;97163.56;;;23.82;43.56
29045;BME280;16133;49.486;12.176;2023-06-14T06:20:03;97167.81;;;23.43;44.75
29045;BME280;16133;49.486;12.176;2023-06-14T06:22:28;97169.75;;;22.85;45.06
29045;BME280;16133;49.486;12.176;2023-06-14T06:24:53;97179.88;;;22.21;46.35
29045;BME280;16133;49.486;12.176;2023-06-14T06:27:19;97173.47;;;21.41;47.90
29045;BME280;16133;49.486;12.176;2023-06-14T06:29:45;97187.25;;;20.80;48.92
29045;BME280;16133;49.486;12.176;2023-06-14T06:32:11;97184.22;;;20.21;50.69
29045;BME280;16133;49.486;12.176;2023-06-14T06:34:36;97187.06;;;19.98;52.06
29045;BME280;16133;49.486;12.176;2023-06-14T06:37:02;97184.94;;;19.83;51.37
29045;BME280;16133;49.486;12.176;2023-06-14T06:39:28;97188.69;;;19.66;52.08
29045;BME280;16133;49.486;12.176;2023-06-14T06:41:53;97191.28;;;19.61;53.52
29045;BME280;16133;49.486;12.176;2023-06-14T06:44:18;97196.88;;;19.42;52.90
29045;BME280;16133;49.486;12.176;2023-06-14T06:46:44;97182.34;;;19.32;53.10
29045;BME280;16133;49.486;12.176;2023-06-14T06:49:09;97186.50;;;19.23;53.97
29045;BME280;16133;49.486;12.176;2023-06-14T06:51:37;97193.56;;;19.12;54.81
29045;BME280;16133;49.486;12.176;2023-06-14T06:54:02;97178.47;;;19.11;55.64
29045;BME280;16133;49.486;12.176;2023-06-14T06:56:28;97199.50;;;19.14;55.40
29045;BME280;16133;49.486;12.176;2023-06-14T06:58:54;97190.38;;;19.15;55.48
29045;BME280;16133;49.486;12.176;2023-06-14T07:01:19;97196.13;;;19.07;54.89
29045;BME280;16133;49.486;12.176;2023-06-14T07:03:45;97194.41;;;19.01;54.96
29045;BME280;16133;49.486;12.176;2023-06-14T07:06:11;97198.34;;;19.10;54.99
29045;BME280;16133;49.486;12.176;2023-06-14T07:08:36;97194.50;;;19.06;56.18
29045;BME280;16133;49.486;12.176;2023-06-14T07:11:04;97198.09;;;19.23;54.23
29045;BME280;16133;49.486;12.176;2023-06-14T07:13:30;97195.69;;;19.38;53.13
29045;BME280;16133;49.486;12.176;2023-06-14T07:15:58;97198.25;;;19.45;53.40
29045;BME280;16133;49.486;12.176;2023-06-14T07:18:24;97205.78;;;19.60;52.76
29045;BME280;16133;49.486;12.176;2023-06-14T07:20:49;97210.78;;;19.68;51.76
29045;BME280;16133;49.486;12.176;2023-06-14T07:23:15;97206.97;;;19.80;50.71
29045;BME280;16133;49.486;12.176;2023-06-14T07:25:40;97207.25;;;19.95;50.29
29045;BME280;16133;49.486;12.176;2023-06-14T07:28:06;97210.09;;;20.05;51.96
29045;BME280;16133;49.486;12.176;2023-06-14T07:30:32;97206.59;;;20.22;50.55
29045;BME280;16133;49.486;12.176;2023-06-14T07:32:57;97209.84;;;20.07;50.27
29045;BME280;16133;49.486;12.176;2023-06-14T07:35:23;97211.16;;;19.88;50.42
29045;BME280;16133;49.486;12.176;2023-06-14T07:37:48;97219.72;;;19.85;50.85
29045;BME280;16133;49.486;12.176;2023-06-14T07:40:15;97218.78;;;19.79;51.18
29045;BME280;16133;49.486;12.176;2023-06-14T07:42:40;97216.03;;;19.91;51.85
29045;BME280;16133;49.486;12.176;2023-06-14T07:45:06;97220.13;;;20.10;52.15
29045;BME280;16133;49.486;12.176;2023-06-14T07:47:32;97210.78;;;20.29;51.31
29045;BME280;16133;49.486;12.176;2023-06-14T07:49:58;97212.31;;;20.25;51.04
29045;BME280;16133;49.486;12.176;2023-06-14T07:52:23;97212.84;;;20.39;51.58
29045;BME280;16133;49.486;12.176;2023-06-14T07:54:48;97225.81;;;20.42;50.94
29045;BME280;16133;49.486;12.176;2023-06-14T07:57:14;97212.25;;;20.37;50.26
29045;BME280;16133;49.486;12.176;2023-06-14T07:59:39;97221.66;;;20.34;50.58
29045;BME280;16133;49.486;12.176;2023-06-14T08:02:06;97230.94;;;20.27;50.65
29045;BME280;16133;49.486;12.176;2023-06-14T08:04:31;97226.81;;;20.24;50.53
29045;BME280;16133;49.486;12.176;2023-06-14T08:06:57;97231.66;;;20.22;50.37
29045;BME280;16133;49.486;12.176;2023-06-14T08:09:22;97224.69;;;20.10;50.80
29045;BME280;16133;49.486;12.176;2023-06-14T08:11:49;97230.91;;;20.10;51.47
29045;BME280;16133;49.486;12.176;2023-06-14T08:14:15;97231.81;;;19.99;51.38
29045;BME280;16133;49.486;12.176;2023-06-14T08:16:40;97227.34;;;20.04;51.80
29045;BME280;16133;49.486;12.176;2023-06-14T08:19:06;97225.38;;;20.00;52.08
29045;BME280;16133;49.486;12.176;2023-06-14T08:21:31;97229.94;;;19.99;51.03
29045;BME280;16133;49.486;12.176;2023-06-14T08:23:58;97227.88;;;19.90;52.47
29045;BME280;16133;49.486;12.176;2023-06-14T08:26:24;97227.22;;;19.83;52.77
29045;BME280;16133;49.486;12.176;2023-06-14T08:28:54;97228.19;;;19.93;51.24
29045;BME280;16133;49.486;12.176;2023-06-14T08:31:20;97230.44;;;19.96;51.64
29045;BME280;16133;49.486;12.176;2023-06-14T08:33:45;97236.97;;;20.00;51.44
29045;BME280;16133;49.486;12.176;2023-06-14T08:36:11;97237.28;;;20.04;50.54
29045;BME280;16133;49.486;12.176;2023-06-14T08:38:37;97231.81;;;20.16;50.01
29045;BME280;16133;49.486;12.176;2023-06-14T08:41:05;97236.19;;;20.33;50.47
29045;BME280;16133;49.486;12.176;2023-06-14T08:43:31;97239.59;;;20.45;49.38
29045;BME280;16133;49.486;12.176;2023-06-14T08:46:04;97227.31;;;20.55;47.80
29045;BME280;16133;49.486;12.176;2023-06-14T08:48:31;97236.00;;;20.57;48.82
29045;BME280;16133;49.486;12.176;2023-06-14T08:51:00;97236.41;;;20.48;47.67
29045;BME280;16133;49.486;12.176;2023-06-14T08:53:32;97228.31;;;20.48;48.99
29045;BME280;16133;49.486;12.176;2023-06-14T08:56:02;97234.31;;;20.50;47.46
29045;BME280;16133;49.486;12.176;2023-06-14T08:58:30;97241.88;;;20.54;48.54
29045;BME280;16133;49.486;12.176;2023-06-14T09:00:57;97242.53;;;20.61;48.46
29045;BME280;16133;49.486;12.176;2023-06-14T09:03:23;97225.66;;;20.70;47.55
29045;BME280;16133;49.486;12.176;2023-06-14T09:05:54;97240.25;;;20.69;47.44
29045;BME280;16133;49.486;12.176;2023-06-14T09:08:19;97238.78;;;20.62;46.94
29045;BME280;16133;49.486;12.176;2023-06-14T09:10:47;97225.75;;;20.75;46.94
29045;BME280;16133;49.486;12.176;2023-06-14T09:13:12;97230.41;;;20.80;47.93
29045;BME280;16133;49.486;12.176;2023-06-14T09:15:38;97232.50;;;20.94;47.48
29045;BME280;16133;49.486;12.176;2023-06-14T09:18:03;97241.22;;;21.02;46.92
29045;BME280;16133;49.486;12.176;2023-06-14T09:20:30;97229.59;;;21.01;48.13
29045;BME280;16133;49.486;12.176;2023-06-14T09:22:55;97233.31;;;20.95;47.53
29045;BME280;16133;49.486;12.176;2023-06-14T09:25:21;97236.13;;;20.83;45.91
29045;BME280;16133;49.486;12.176;2023-06-14T09:27:51;97235.09;;;20.68;46.58
29045;BME280;16133;49.486;12.176;2023-06-14T09:30:20;97236.72;;;20.69;46.62
29045;BME280;16133;49.486;12.176;2023-06-14T09:32:46;97241.72;;;20.60;47.68
29045;BME280;16133;49.486;12.176;2023-06-14T09:35:11;97244.31;;;20.72;46.81
29045;BME280;16133;49.486;12.176;2023-06-14T09:37:37;97252.63;;;20.70;46.85
29045;BME280;16133;49.486;12.176;2023-06-14T09:40:05;97245.78;;;20.63;46.39
29045;BME280;16133;49.486;12.176;2023-06-14T09:42:32;97246.09;;;20.66;45.27
29045;BME280;16133;49.486;12.176;2023-06-14T09:45:02;97240.50;;;20.34;45.75
29045;BME280;16133;49.486;12.176;2023-06-14T09:47:27;97248.28;;;20.31;45.21
29045;BME280;16133;49.486;12.176;2023-06-14T09:49:54;97242.72;;;20.37;46.34
29045;BME280;16133;49.486;12.176;2023-06-14T09:52:21;97239.84;;;20.61;45.54
29045;BME280;16133;49.486;12.176;2023-06-14T09:54:47;97240.69;;;20.83;46.80
29045;BME280;16133;49.486;12.176;2023-06-14T09:57:16;97238.50;;;21.18;45.96
29045;BME280;16133;49.486;12.176;2023-06-14T09:59:43;97234.53;;;21.48;44.87
29045;BME280;16133;49.486;12.176;2023-06-14T10:02:21;97211.34;;;21.52;43.64
29045;BME280;16133;49.486;12.176;2023-06-14T10:04:53;97238.06;;;21.75;43.18
29045;BME280;16133;49.486;12.176;2023-06-14T10:07:23;97233.03;;;21.83;43.66
29045;BME280;16133;49.486;12.176;2023-06-14T10:09:52;97230.03;;;22.07;43.39
29045;BME280;16133;49.486;12.176;2023-06-14T10:12:18;97233.09;;;22.15;42.16
29045;BME280;16133;49.486;12.176;2023-06-14T10:14:49;97225.53;;;22.17;41.72
29045;BME280;16133;49.486;12.176;2023-06-14T10:17:43;97231.63;;;22.03;42.33
29045;BME280;16133;49.486;12.176;2023-06-14T10:20:33;97233.94;;;22.21;43.26
29045;BME280;16133;49.486;12.176;2023-06-14T10:23:11;97228.47;;;22.48;42.23
29045;BME280;16133;49.486;12.176;2023-06-14T10:25:38;97231.88;;;22.70;41.19
29045;BME280;16133;49.486;12.176;2023-06-14T10:33:33;97220.75;;;23.03;38.68
29045;BME280;16133;49.486;12.176;2023-06-14T10:36:23;97228.03;;;23.03;38.37
29045;BME280;16133;49.486;12.176;2023-06-14T10:38:58;97216.63;;;22.96;38.08
29045;BME280;16133;49.486;12.176;2023-06-14T10:41:28;97217.97;;;22.93;37.80
29045;BME280;16133;49.486;12.176;2023-06-14T10:46:57;97216.00;;;22.78;38.92
29045;BME280;16133;49.486;12.176;2023-06-14T10:49:43;97209.72;;;22.68;38.34
29045;BME280;16133;49.486;12.176;2023-06-14T10:52:12;97215.84;;;23.05;38.44
29045;BME280;16133;49.486;12.176;2023-06-14T10:57:41;97213.72;;;24.00;37.21
29045;BME280;16133;49.486;12.176;2023-06-14T11:00:08;97207.25;;;24.16;37.32
29045;BME280;16133;49.486;12.176;2023-06-14T11:05:41;97202.63;;;24.01;37.71
29045;BME280;16133;49.486;12.176;2023-06-14T11:11:06;97207.41;;;23.59;37.10
29045;BME280;16133;49.486;12.176;2023-06-14T11:13:32;97207.94;;;23.46;38.29
29045;BME280;16133;49.486;12.176;2023-06-14T11:15:58;97207.97;;;23.61;37.56
29045;BME280;16133;49.486;12.176;2023-06-14T11:18:24;97207.94;;;23.51;37.08
29045;BME280;16133;49.486;12.176;2023-06-14T11:20:50;97206.31;;;23.50;37.13
29045;BME280;16133;49.486;12.176;2023-06-14T11:23:15;97201.44;;;23.47;37.94
29045;BME280;16133;49.486;12.176;2023-06-14T11:25:40;97188.69;;;23.42;37.97
29045;BME280;16133;49.486;12.176;2023-06-14T11:28:06;97197.44;;;23.64;38.43
29045;BME280;16133;49.486;12.176;2023-06-14T11:30:32;97197.19;;;23.96;36.88
29045;BME280;16133;49.486;12.176;2023-06-14T11:32:59;97198.28;;;24.46;37.24
29045;BME280;16133;49.486;12.176;2023-06-14T11:35:25;97200.44;;;24.64;34.94
29045;BME280;16133;49.486;12.176;2023-06-14T11:37:55;97201.50;;;24.88;36.07
29045;BME280;16133;49.486;12.176;2023-06-14T11:40:23;97196.31;;;25.02;34.92
29045;BME280;16133;49.486;12.176;2023-06-14T11:42:49;97209.09;;;24.91;34.31
29045;BME280;16133;49.486;12.176;2023-06-14T11:45:14;97207.44;;;24.80;34.86
29045;BME280;16133;49.486;12.176;2023-06-14T11:47:40;97208.81;;;24.77;34.35
29045;BME280;16133;49.486;12.176;2023-06-14T11:50:07;97203.13;;;24.69;34.43
29045;BME280;16133;49.486;12.176;2023-06-14T11:52:34;97197.16;;;24.77;33.99
29045;BME280;16133;49.486;12.176;2023-06-14T11:54:59;97198.25;;;24.86;34.18
29045;BME280;16133;49.486;12.176;2023-06-14T11:57:25;97193.91;;;24.75;34.42
29045;BME280;16133;49.486;12.176;2023-06-14T11:59:51;97197.19;;;24.62;34.67
29045;BME280;16133;49.486;12.176;2023-06-14T12:02:17;97190.72;;;24.27;33.84
29045;BME280;16133;49.486;12.176;2023-06-14T12:04:44;97187.44;;;24.10;34.09
29045;BME280;16133;49.486;12.176;2023-06-14T12:07:13;97182.03;;;23.95;35.42
29045;BME280;16133;49.486;12.176;2023-06-14T12:12:23;97182.44;;;23.42;35.89
29045;BME280;16133;49.486;12.176;2023-06-14T12:14:51;97180.25;;;23.39;35.61
29045;BME280;16133;49.486;12.176;2023-06-14T12:17:17;97175.88;;;23.27;36.50
29045;BME280;16133;49.486;12.176;2023-06-14T12:19:44;97174.84;;;23.33;37.27
29045;BME280;16133;49.486;12.176;2023-06-14T12:22:10;97190.81;;;23.40;36.06
29045;BME280;16133;49.486;12.176;2023-06-14T12:24:36;97182.97;;;23.33;35.53
29045;BME280;16133;49.486;12.176;2023-06-14T12:27:03;97178.88;;;23.26;35.39
29045;BME280;16133;49.486;12.176;2023-06-14T12:29:29;97184.72;;;23.03;36.77
29045;BME280;16133;49.486;12.176;2023-06-14T12:31:55;97180.06;;;22.93;36.55
29045;BME280;16133;49.486;12.176;2023-06-14T12:34:22;97184.88;;;22.81;36.52
29045;BME280;16133;49.486;12.176;2023-06-14T12:36:48;97180.50;;;22.70;37.48
29045;BME280;16133;49.486;12.176;2023-06-14T12:39:13;97186.47;;;22.77;37.29
29045;BME280;16133;49.486;12.176;2023-06-14T12:41:39;97185.56;;;23.03;36.68
29045;BME280;16133;49.486;12.176;2023-06-14T12:44:07;97178.63;;;23.32;36.42
29045;BME280;16133;49.486;12.176;2023-06-14T12:46:32;97181.97;;;23.60;36.38
29045;BME280;16133;49.486;12.176;2023-06-14T12:48:58;97182.81;;;23.91;35.76
29045;BME280;16133;49.486;12.176;2023-06-14T12:51:23;97176.63;;;24.15;35.80
29045;BME280;16133;49.486;12.176;2023-06-14T12:53:50;97186.34;;;24.47;35.05
29045;BME280;16133;49.486;12.176;2023-06-14T12:56:16;97190.13;;;24.71;34.60
29045;BME280;16133;49.486;12.176;2023-06-14T12:58:42;97180.34;;;24.90;33.89
29045;BME280;16133;49.486;12.176;2023-06-14T13:01:07;97177.88;;;24.94;34.07
29045;BME280;16133;49.486;12.176;2023-06-14T13:03:33;97183.31;;;24.99;33.83
29045;BME280;16133;49.486;12.176;2023-06-14T13:05:59;97187.03;;;25.08;33.26
29045;BME280;16133;49.486;12.176;2023-06-14T13:08:25;97184.03;;;25.14;33.43
29045;BME280;16133;49.486;12.176;2023-06-14T13:10:50;97187.28;;;25.21;32.66